Time;durP1;ratioP1;P1;durP2;ratioP2;P2;SDS_P1;SDS_P2;PMS_P1;PMS_P2;Temp;Humidity;BMP_temperature;BMP_pressure;BME280_temperature;BME280_humidity;BME280_pressure;Samples;Min_cycle;Max_cycle;Signal;HPM_P1;HPM_P2
2021/05/25 00:00:31;;;;;;;1.05;0.88;;;;;;;12.57;95.85;97748.47;3777913;76;43950;-26
2021/05/25 00:05:38;;;;;;;2.20;1.00;;;;;;;12.48;96.27;97745.56;3771329;76;44131;-26
2021/05/25 00:10:43;;;;;;;1.05;0.80;;;;;;;12.36;97.61;97760.58;3758555;76;43686;-26
2021/05/25 00:15:53;;;;;;;1.20;1.10;;;;;;;12.35;96.79;97765.66;3801479;76;43490;-26
2021/05/25 00:20:57;;;;;;;1.60;1.00;;;;;;;12.38;96.13;97761.23;3833352;76;44026;-26
2021/05/25 00:26:03;;;;;;;2.20;1.00;;;;;;;12.37;97.08;97750.92;3823348;76;44054;-26
2021/05/25 00:31:09;;;;;;;1.52;0.88;;;;;;;12.36;97.13;97733.57;3816446;76;44781;-26
2021/05/25 00:36:16;;;;;;;1.62;1.10;;;;;;;12.28;97.18;97735.37;3724574;79;43416;-23
2021/05/25 00:41:22;;;;;;;1.32;1.00;;;;;;;12.20;98.58;97736.80;3813413;76;44089;-23
2021/05/25 00:46:28;;;;;;;1.10;1.00;;;;;;;12.10;100.00;97730.37;3806491;76;44089;-23
2021/05/25 00:51:34;;;;;;;1.45;1.00;;;;;;;12.05;100.00;97727.38;3804999;76;43664;-23
2021/05/25 00:56:40;;;;;;;2.62;1.02;;;;;;;12.02;100.00;97731.30;3822850;76;43361;-23
2021/05/25 01:01:47;;;;;;;1.37;1.00;;;;;;;11.97;100.00;97754.45;3801486;76;43721;-23
2021/05/25 01:06:53;;;;;;;1.42;1.00;;;;;;;11.86;100.00;97745.80;3804034;76;43297;-23
2021/05/25 01:12:01;;;;;;;1.32;1.07;;;;;;;11.80;100.00;97756.50;3813645;76;43344;-26
2021/05/25 01:17:07;;;;;;;1.65;1.30;;;;;;;11.77;100.00;97725.83;3797426;76;42982;-26
2021/05/25 01:22:12;;;;;;;2.17;1.12;;;;;;;11.67;100.00;97728.80;3811047;76;44051;-26
2021/05/25 01:27:18;;;;;;;1.92;1.20;;;;;;;11.56;100.00;97734.98;3814628;75;44121;-26
2021/05/25 01:32:24;;;;;;;2.52;1.27;;;;;;;11.51;100.00;97739.25;3829098;75;43385;-26
2021/05/25 01:37:30;;;;;;;1.55;1.30;;;;;;;11.44;100.00;97759.91;3821617;75;44057;-26
2021/05/25 01:42:38;;;;;;;1.00;0.85;;;;;;;11.48;100.00;97763.39;3821030;75;43384;-26
2021/05/25 01:47:45;;;;;;;1.77;0.90;;;;;;;11.46;98.31;97776.75;3792369;77;43432;-22
2021/05/25 01:52:57;;;;;;;1.57;0.82;;;;;;;11.38;94.75;97769.56;3746414;78;43321;-22
2021/05/25 01:58:06;;;;;;;1.70;1.00;;;;;;;11.25;91.05;97782.30;3734365;78;43404;-22
2021/05/25 02:03:13;;;;;;;1.00;0.80;;;;;;;11.16;89.52;97791.48;3790925;77;43673;-22
2021/05/25 02:08:21;;;;;;;2.25;0.80;;;;;;;10.98;91.73;97783.20;3733961;78;44041;-22
2021/05/25 02:13:28;;;;;;;1.17;0.70;;;;;;;10.89;87.66;97776.17;3820556;77;43710;-22
2021/05/25 02:18:36;;;;;;;0.85;0.75;;;;;;;10.87;87.27;97772.84;3804773;77;44005;-22
2021/05/25 02:23:41;;;;;;;1.10;0.90;;;;;;;10.67;90.41;97800.22;3794150;77;43681;-22
2021/05/25 02:28:48;;;;;;;2.02;0.75;;;;;;;10.61;91.18;97807.68;3774235;78;43459;-22
2021/05/25 02:33:53;;;;;;;0.75;0.70;;;;;;;10.58;92.19;97791.37;3853446;75;43613;-21
2021/05/25 02:38:59;;;;;;;1.10;0.70;;;;;;;10.60;91.21;97800.61;3834009;75;44096;-22
2021/05/25 02:44:06;;;;;;;1.12;0.65;;;;;;;10.53;92.21;97816.64;3841825;75;42931;-22
2021/05/25 02:49:12;;;;;;;1.70;0.80;;;;;;;10.43;94.56;97817.36;3745874;79;43438;-22
2021/05/25 02:54:18;;;;;;;0.60;0.60;;;;;;;10.36;95.04;97819.02;3829508;75;44116;-22
2021/05/25 02:59:24;;;;;;;1.40;0.72;;;;;;;10.39;94.59;97834.38;3835968;75;44077;-22
2021/05/25 03:04:29;;;;;;;1.77;0.80;;;;;;;10.29;97.32;97826.47;3814781;75;43460;-22
2021/05/25 03:09:35;;;;;;;0.62;0.62;;;;;;;10.23;97.91;97829.02;3823964;75;44107;-22
2021/05/25 03:14:41;;;;;;;1.42;0.75;;;;;;;10.14;98.14;97835.78;3820602;75;43125;-22
2021/05/25 03:19:47;;;;;;;0.68;0.68;;;;;;;10.15;91.93;97841.50;3821116;75;44003;-22
2021/05/25 03:24:53;;;;;;;0.95;0.70;;;;;;;10.13;91.76;97844.87;3818216;75;43430;-22
2021/05/25 03:29:59;;;;;;;2.02;0.80;;;;;;;10.08;91.96;97820.30;3818497;75;43364;-22
2021/05/25 03:35:08;;;;;;;2.58;0.70;;;;;;;10.01;93.23;97831.44;3790082;77;43798;-22
2021/05/25 03:40:18;;;;;;;0.70;0.65;;;;;;;9.98;93.69;97841.20;3752674;78;43225;-22
2021/05/25 03:45:26;;;;;;;0.72;0.72;;;;;;;9.98;92.48;97853.30;3730145;78;44466;-22
2021/05/25 03:50:32;;;;;;;1.50;0.90;;;;;;;9.96;89.34;97858.02;3818244;75;44093;-22
2021/05/25 03:55:45;;;;;;;1.60;0.80;;;;;;;9.91;89.05;97859.05;3807319;75;43234;-22
2021/05/25 04:00:51;;;;;;;0.70;0.60;;;;;;;9.82;90.33;97863.08;3817949;75;43663;-22
2021/05/25 04:05:57;;;;;;;2.05;0.72;;;;;;;9.80;86.24;97885.78;3743703;79;44010;-22
2021/05/25 04:11:03;;;;;;;1.07;0.78;;;;;;;9.68;87.96;97908.17;3871744;75;43445;-22
2021/05/25 04:16:11;;;;;;;1.75;0.80;;;;;;;9.62;85.66;97894.03;3853432;75;43472;-22
2021/05/25 04:21:20;;;;;;;4.08;0.70;;;;;;;9.58;85.82;97896.22;3829212;75;44010;-22
2021/05/25 04:26:27;;;;;;;1.35;0.80;;;;;;;9.61;84.79;97882.45;3741141;79;43356;-22
2021/05/25 04:31:34;;;;;;;2.02;0.80;;;;;;;9.57;84.33;97889.16;3801073;76;44042;-22
2021/05/25 04:36:39;;;;;;;0.85;0.70;;;;;;;9.58;84.28;97919.59;3715511;79;43306;-22
2021/05/25 04:41:45;;;;;;;0.85;0.70;;;;;;;9.52;83.59;97908.49;3804122;76;44055;-22
2021/05/25 04:46:51;;;;;;;1.60;0.75;;;;;;;9.45;83.79;97910.17;3805359;76;43334;-22
2021/05/25 04:51:57;;;;;;;1.10;0.80;;;;;;;9.40;83.92;97930.84;3799856;76;44034;-22
2021/05/25 04:57:04;;;;;;;1.22;0.80;;;;;;;9.25;87.21;97936.00;3813849;76;43677;-22
2021/05/25 05:02:11;;;;;;;2.33;0.70;;;;;;;9.27;84.76;97944.41;3794030;76;43680;-21
2021/05/25 05:07:17;;;;;;;3.40;0.80;;;;;;;9.35;80.38;97960.06;3803214;76;43726;-22
2021/05/25 05:12:26;;;;;;;1.77;0.80;;;;;;;9.20;83.60;97962.55;3811414;76;44023;-22
2021/05/25 05:17:33;;;;;;;1.32;0.68;;;;;;;9.14;80.53;97962.36;3798249;76;44136;-22
2021/05/25 05:22:40;;;;;;;1.62;1.20;;;;;;;9.36;79.22;97954.16;3797239;76;43953;-21
2021/05/25 05:27:47;;;;;;;1.50;0.80;;;;;;;9.31;79.71;97960.55;3803504;76;43511;-21
2021/05/25 05:32:53;;;;;;;2.08;0.70;;;;;;;9.25;78.88;97950.78;3780273;76;44099;-21
2021/05/25 05:37:59;;;;;;;2.70;0.70;;;;;;;9.44;77.99;97936.73;3783739;76;43007;-22
2021/05/25 05:43:06;;;;;;;0.50;0.50;;;;;;;9.63;76.87;97935.57;3786622;76;43717;-21
2021/05/25 05:48:12;;;;;;;1.42;0.60;;;;;;;9.61;75.48;97942.10;3787371;76;43132;-22
2021/05/25 05:53:18;;;;;;;1.52;0.70;;;;;;;9.77;77.62;97952.88;3773537;76;43685;-21
2021/05/25 05:58:25;;;;;;;1.17;0.70;;;;;;;9.68;78.79;97956.58;3842356;76;43282;-21
2021/05/25 06:03:31;;;;;;;1.37;0.65;;;;;;;9.58;79.84;97954.04;3811603;76;43621;-22
2021/05/25 06:08:37;;;;;;;2.65;0.70;;;;;;;9.69;80.71;97966.34;3803741;76;44058;-21
2021/05/25 06:13:43;;;;;;;1.02;0.70;;;;;;;9.94;79.67;97956.90;3752431;78;43992;-21
2021/05/25 06:18:51;;;;;;;2.30;0.70;;;;;;;10.28;79.54;97958.58;3808937;76;43760;-21
2021/05/25 06:23:57;;;;;;;3.08;0.82;;;;;;;10.44;77.82;97943.74;3794938;76;43690;-21
2021/05/25 06:29:05;;;;;;;1.80;0.88;;;;;;;10.54;78.18;97951.64;3817737;76;43312;-21
2021/05/25 06:34:12;;;;;;;0.72;0.65;;;;;;;10.50;78.86;97933.30;3742007;78;43710;-21
2021/05/25 06:39:18;;;;;;;3.27;0.70;;;;;;;10.41;78.65;97950.81;3824327;76;44209;-21
2021/05/25 06:44:25;;;;;;;1.20;0.98;;;;;;;10.48;78.64;97939.70;3823918;76;43359;-22
2021/05/25 06:49:32;;;;;;;1.95;0.70;;;;;;;10.21;78.63;97950.83;3733328;78;44503;-22
2021/05/25 06:54:39;;;;;;;0.85;0.70;;;;;;;10.36;77.15;97953.16;3695305;79;43458;-21
2021/05/25 06:59:45;;;;;;;2.20;0.72;;;;;;;10.40;76.58;97949.16;3698810;79;44796;-22
2021/05/25 07:04:51;;;;;;;1.40;0.60;;;;;;;10.46;79.64;97948.45;3727245;78;44845;-22
2021/05/25 07:09:59;;;;;;;0.65;0.60;;;;;;;10.29;80.07;97953.01;3738057;78;44323;-22
2021/05/25 07:15:08;;;;;;;0.75;0.57;;;;;;;10.58;80.98;97954.82;3739218;78;43432;-21
2021/05/25 07:20:16;;;;;;;2.20;0.60;;;;;;;10.68;80.25;97927.17;3733427;78;44039;-21
2021/05/25 07:25:24;;;;;;;1.30;0.62;;;;;;;10.66;74.09;97941.31;3721749;78;43627;-22
2021/05/25 07:30:31;;;;;;;1.80;0.75;;;;;;;10.69;75.50;97937.45;3686247;78;44039;-21
2021/05/25 07:35:37;;;;;;;1.52;0.65;;;;;;;10.84;76.79;97941.08;3775748;76;43728;-21
2021/05/25 07:40:44;;;;;;;1.70;0.68;;;;;;;11.03;74.34;97946.56;3764581;76;44739;-21
2021/05/25 07:45:50;;;;;;;1.75;1.02;;;;;;;11.18;71.10;97968.73;3785578;76;43333;-21
2021/05/25 07:50:56;;;;;;;0.70;0.60;;;;;;;11.23;68.32;97959.63;3750569;78;44090;-21
2021/05/25 07:56:02;;;;;;;2.37;0.90;;;;;;;11.28;68.25;97967.17;3795128;76;42800;-21
2021/05/25 08:01:08;;;;;;;0.85;0.57;;;;;;;11.56;67.05;97961.59;3796082;76;44442;-22
2021/05/25 08:06:14;;;;;;;0.93;0.60;;;;;;;11.24;67.74;97951.84;3802787;76;44545;-19
2021/05/25 08:11:20;;;;;;;0.95;0.60;;;;;;;11.52;68.42;97978.31;3802805;76;44235;-21
2021/05/25 08:16:30;;;;;;;1.47;0.50;;;;;;;11.48;66.41;97964.34;3736935;78;44910;-21
2021/05/25 08:21:35;;;;;;;2.17;0.55;;;;;;;11.31;66.21;97970.35;3790052;76;44418;-21
2021/05/25 08:26:54;;;;;;;2.33;0.40;;;;;;;11.38;68.44;97974.53;3791481;76;43731;-21
2021/05/25 08:32:03;;;;;;;1.60;0.42;;;;;;;11.31;68.49;97982.48;3818464;75;26402;-22
2021/05/25 08:37:12;;;;;;;0.62;0.60;;;;;;;11.40;69.17;97988.16;3832468;75;43425;-21
2021/05/25 08:42:42;;;;;;;0.65;0.50;;;;;;;11.46;69.67;97985.27;3836512;75;43327;-21
2021/05/25 08:47:58;;;;;;;1.95;0.50;;;;;;;11.94;64.29;97991.01;3828126;75;44733;-21
2021/05/25 08:53:07;;;;;;;1.17;0.60;;;;;;;11.86;61.94;97977.92;3837198;75;44111;-21
2021/05/25 08:58:14;;;;;;;0.40;0.40;;;;;;;11.95;62.68;97994.87;3812599;75;43692;-21
2021/05/25 09:03:22;;;;;;;0.65;0.42;;;;;;;11.96;63.44;97985.75;3827387;75;44006;-22
2021/05/25 09:08:28;;;;;;;1.90;0.50;;;;;;;12.20;64.62;97986.59;3830403;75;44144;-21
2021/05/25 09:13:34;;;;;;;0.90;0.50;;;;;;;12.01;63.07;97999.59;3813925;75;44459;-21
2021/05/25 09:18:48;;;;;;;1.65;0.60;;;;;;;12.15;65.96;97988.50;3802596;75;43332;-21
2021/05/25 09:23:54;;;;;;;1.40;0.60;;;;;;;13.01;64.68;97997.24;3808203;75;43253;-21
2021/05/25 09:29:03;;;;;;;0.80;0.40;;;;;;;13.16;61.84;97989.97;3810337;75;44383;-22
2021/05/25 09:34:11;;;;;;;0.57;0.50;;;;;;;12.80;60.99;97994.78;3784170;76;44117;-21
2021/05/25 09:39:18;;;;;;;1.32;0.40;;;;;;;13.09;58.67;98008.81;3653736;80;43975;-21
2021/05/25 09:44:26;;;;;;;0.40;0.30;;;;;;;12.61;63.78;98002.43;3786617;76;43682;-21
2021/05/25 09:49:33;;;;;;;1.32;0.50;;;;;;;12.71;62.77;98010.77;3815507;76;43722;-22
2021/05/25 09:54:40;;;;;;;0.40;0.40;;;;;;;13.07;62.42;97993.80;3804161;76;43331;-22
2021/05/25 09:59:46;;;;;;;0.40;0.30;;;;;;;13.22;65.21;97997.84;3814250;76;43986;-22
2021/05/25 10:05:04;;;;;;;2.85;0.45;;;;;;;12.81;64.52;98001.88;3785441;76;44742;-22
2021/05/25 10:10:12;;;;;;;0.45;0.40;;;;;;;12.96;64.46;98026.20;3804265;76;42796;-22
2021/05/25 10:15:20;;;;;;;0.50;0.40;;;;;;;12.73;61.45;98020.36;3789744;76;43661;-22
2021/05/25 10:20:27;;;;;;;0.42;0.30;;;;;;;12.45;63.77;97999.88;3789289;76;44126;-22
2021/05/25 10:25:35;;;;;;;1.67;0.50;;;;;;;12.83;62.53;97997.13;3812510;76;42724;-22
2021/05/25 10:30:45;;;;;;;0.53;0.42;;;;;;;12.68;64.42;97993.56;3745038;77;44040;-22
2021/05/25 10:35:52;;;;;;;1.10;0.40;;;;;;;12.86;69.64;97984.59;3775507;77;43306;-22
2021/05/25 10:41:00;;;;;;;0.42;0.30;;;;;;;13.43;62.88;97975.45;3746015;78;43653;-22
2021/05/25 10:46:29;;;;;;;0.47;0.30;;;;;;;13.12;61.41;98006.23;3811014;76;43424;-22
2021/05/25 10:52:11;;;;;;;0.80;0.37;;;;;;;12.87;64.07;98003.84;3808350;76;44039;-23
2021/05/25 10:57:51;;;;;;;0.37;0.30;;;;;;;13.03;68.05;98018.19;3812050;76;43331;-23
2021/05/25 11:02:59;;;;;;;0.30;0.30;;;;;;;11.97;71.88;98037.38;3804484;76;43302;-21
2021/05/25 11:08:25;;;;;;;0.40;0.40;;;;;;;11.20;81.02;98034.11;3791376;76;43320;-22
2021/05/25 11:13:31;;;;;;;1.65;0.40;;;;;;;11.65;79.74;98014.99;3784533;76;44008;-21
2021/05/25 11:18:43;;;;;;;0.30;0.30;;;;;;;11.74;79.39;98012.23;3793260;76;43425;-21
2021/05/25 11:23:51;;;;;;;0.70;0.37;;;;;;;12.15;75.44;98022.78;3801119;76;44035;-21
2021/05/25 11:29:18;;;;;;;0.50;0.42;;;;;;;13.12;73.86;97988.66;3779287;76;44051;-22
2021/05/25 11:34:26;;;;;;;1.85;0.60;;;;;;;13.04;72.91;97982.00;3684671;79;44141;-21
2021/05/25 11:39:34;;;;;;;1.02;0.40;;;;;;;13.54;68.31;97969.53;3796933;76;44475;-21
2021/05/25 11:44:43;;;;;;;1.40;0.45;;;;;;;13.49;69.70;97994.97;3829900;76;44006;-22
2021/05/25 11:49:50;;;;;;;0.30;0.30;;;;;;;13.63;68.79;97993.77;3821786;76;43657;-22
2021/05/25 11:54:58;;;;;;;2.05;0.50;;;;;;;13.45;70.15;97982.87;3726911;79;43383;-22
2021/05/25 12:00:08;;;;;;;0.30;0.30;;;;;;;13.57;68.20;98023.78;3715316;79;43489;-22
2021/05/25 12:05:18;;;;;;;1.10;0.30;;;;;;;13.16;67.42;98002.14;3808524;76;26321;-22
2021/05/25 12:10:26;;;;;;;0.70;0.40;;;;;;;13.06;68.70;97991.59;3713759;79;43517;-22
2021/05/25 12:15:33;;;;;;;0.75;0.35;;;;;;;13.61;64.90;97989.05;3807364;76;43690;-22
2021/05/25 12:20:43;;;;;;;0.50;0.40;;;;;;;13.70;65.24;97991.98;3740875;78;44018;-22
2021/05/25 12:25:52;;;;;;;1.22;0.40;;;;;;;13.53;63.67;97996.27;3811951;76;43499;-22
2021/05/25 12:30:59;;;;;;;0.40;0.30;;;;;;;13.26;64.53;97995.91;3823080;76;43729;-22
2021/05/25 12:36:16;;;;;;;1.32;0.40;;;;;;;13.34;59.51;97999.56;3801536;76;43077;-21
2021/05/25 12:41:22;;;;;;;0.50;0.42;;;;;;;12.93;62.90;97984.16;3810522;76;43704;-21
2021/05/25 12:46:28;;;;;;;0.53;0.33;;;;;;;12.74;66.33;98011.76;3796262;76;43144;-21
2021/05/25 12:51:35;;;;;;;0.78;0.42;;;;;;;13.26;65.75;98001.33;3768851;77;44024;-21
2021/05/25 12:56:44;;;;;;;0.35;0.35;;;;;;;13.83;63.54;98000.22;3779223;77;44067;-21
2021/05/25 13:01:51;;;;;;;0.30;0.30;;;;;;;12.81;63.16;98009.16;3694527;79;43665;-22
2021/05/25 13:07:03;;;;;;;1.85;0.42;;;;;;;13.27;63.50;98008.95;3788652;76;43012;-22
2021/05/25 13:12:12;;;;;;;1.10;0.40;;;;;;;13.50;65.16;98003.41;3693997;79;43695;-22
2021/05/25 13:17:18;;;;;;;1.27;0.30;;;;;;;13.81;60.54;98002.80;3680400;79;43304;-22
2021/05/25 13:22:37;;;;;;;0.30;0.30;;;;;;;13.58;58.31;98002.99;3689371;79;43608;-22
2021/05/25 13:27:52;;;;;;;0.30;0.30;;;;;;;13.29;59.47;98028.51;3692443;79;43998;-22
2021/05/25 13:32:59;;;;;;;0.47;0.37;;;;;;;12.92;63.01;98020.33;3758490;77;43356;-22
2021/05/25 13:38:07;;;;;;;0.50;0.40;;;;;;;13.51;63.65;98036.21;3849295;75;43392;-22
2021/05/25 13:43:12;;;;;;;0.82;0.50;;;;;;;13.56;60.06;98068.12;3827966;75;43461;-22
2021/05/25 13:48:19;;;;;;;1.57;0.50;;;;;;;13.10;62.29;98046.17;3822734;75;44050;-22
2021/05/25 13:53:25;;;;;;;0.35;0.35;;;;;;;13.07;67.25;98054.66;3844519;75;43267;-22
2021/05/25 13:58:32;;;;;;;0.72;0.40;;;;;;;12.86;66.68;98046.77;3824105;75;43197;-20
2021/05/25 14:03:38;;;;;;;0.80;0.50;;;;;;;12.36;68.25;98099.58;3826377;75;44079;-23
2021/05/25 14:08:44;;;;;;;0.40;0.40;;;;;;;12.09;72.15;98050.48;3833541;75;43723;-22
2021/05/25 14:13:50;;;;;;;0.40;0.33;;;;;;;12.08;75.67;98055.06;3848273;75;44197;-21
2021/05/25 14:18:58;;;;;;;0.68;0.40;;;;;;;11.39;83.56;98043.12;3792574;77;44059;-21
2021/05/25 14:24:06;;;;;;;0.40;0.40;;;;;;;11.01;93.23;98067.19;3803750;77;44069;-21
2021/05/25 14:29:12;;;;;;;0.50;0.40;;;;;;;11.37;91.93;98055.94;3793329;77;44078;-21
2021/05/25 14:34:18;;;;;;;1.37;0.50;;;;;;;12.19;80.95;98072.69;3713591;78;44051;-21
2021/05/25 14:39:24;;;;;;;1.25;0.50;;;;;;;12.69;79.18;98042.55;3784272;76;44258;-21
2021/05/25 14:44:31;;;;;;;0.40;0.40;;;;;;;12.60;71.58;98058.84;3788548;76;42889;-21
2021/05/25 14:49:36;;;;;;;2.77;0.40;;;;;;;13.16;72.86;98026.48;3790350;76;43305;-22
2021/05/25 14:54:44;;;;;;;0.42;0.42;;;;;;;12.93;75.09;98027.42;3811491;76;43684;-21
2021/05/25 14:59:50;;;;;;;0.82;0.40;;;;;;;12.71;73.18;98024.28;3817839;76;43305;-22
2021/05/25 15:05:03;;;;;;;0.75;0.60;;;;;;;12.39;72.58;98026.29;3816416;76;44564;-22
2021/05/25 15:10:23;;;;;;;1.37;0.40;;;;;;;12.33;75.40;98036.79;3810164;76;43687;-22
2021/05/25 15:15:25;;;;;;;1.32;0.50;;;;;;;11.79;82.13;98061.12;3740374;78;44092;-21
2021/05/25 15:20:33;;;;;;;0.50;0.50;;;;;;;11.78;84.75;98066.19;3805867;76;43629;-21
2021/05/25 15:25:39;;;;;;;0.50;0.50;;;;;;;11.72;80.43;98079.36;3808370;76;44166;-22
2021/05/25 15:30:46;;;;;;;0.50;0.50;;;;;;;11.78;81.58;98056.22;3815278;76;44126;-22
2021/05/25 15:35:53;;;;;;;2.50;0.70;;;;;;;11.71;78.43;98070.94;3794787;77;43378;-22
2021/05/25 15:40:59;;;;;;;0.98;0.50;;;;;;;11.63;75.04;98083.13;3796121;78;43368;-22
2021/05/25 15:46:05;;;;;;;0.50;0.50;;;;;;;11.49;75.72;98098.21;3794364;78;44467;-21
2021/05/25 15:51:11;;;;;;;2.15;0.70;;;;;;;11.52;76.81;98087.57;3787504;78;43999;-21
2021/05/25 15:56:19;;;;;;;1.32;1.10;;;;;;;11.53;78.01;98081.98;3787171;78;44827;-21
2021/05/25 16:01:25;;;;;;;1.30;0.60;;;;;;;11.31;82.67;98098.94;3788082;78;43469;-20
2021/05/25 16:06:34;;;;;;;1.32;0.70;;;;;;;10.69;98.50;98099.93;3784385;78;44211;-21
2021/05/25 16:11:41;;;;;;;3.80;1.00;;;;;;;10.00;100.00;98129.82;3780850;78;44080;-20
2021/05/25 16:16:47;;;;;;;1.07;0.78;;;;;;;8.81;100.00;98120.21;3773700;78;44094;-20
2021/05/25 16:21:55;;;;;;;1.15;0.90;;;;;;;9.49;100.00;98084.11;3776329;78;44549;-20
2021/05/25 16:27:00;;;;;;;1.22;0.80;;;;;;;10.26;100.00;98095.20;3776141;78;43422;-22
2021/05/25 16:32:07;;;;;;;1.32;0.90;;;;;;;10.75;100.00;98099.27;3775568;77;43447;-22
2021/05/25 16:37:13;;;;;;;3.75;0.90;;;;;;;11.54;100.00;98105.77;3779039;78;43706;-21
2021/05/25 16:42:19;;;;;;;1.90;0.88;;;;;;;11.84;100.00;98097.86;3764803;78;44048;-21
2021/05/25 16:47:25;;;;;;;1.87;0.80;;;;;;;11.44;100.00;98113.24;3776124;77;43073;-21
2021/05/25 16:52:34;;;;;;;1.65;0.80;;;;;;;11.06;100.00;98103.91;3771316;78;43467;-21
2021/05/25 16:57:40;;;;;;;2.35;0.98;;;;;;;10.97;99.79;98103.61;3712315;79;44083;-21
2021/05/25 17:02:50;;;;;;;1.65;0.98;;;;;;;10.98;97.46;98105.29;3752132;78;44763;-20
2021/05/25 17:08:15;;;;;;;1.52;0.95;;;;;;;10.95;97.63;98106.97;3710818;78;44983;-20
2021/05/25 17:13:16;;;;;;;2.15;1.02;;;;;;;11.03;93.05;98100.20;3696200;78;44062;-21
2021/05/25 17:18:20;;;;;;;0.88;0.80;;;;;;;10.77;97.89;98123.34;3708725;78;44774;-20
2021/05/25 17:23:31;;;;;;;2.05;1.10;;;;;;;10.22;100.00;98196.14;3709774;78;43924;-20
2021/05/25 17:28:37;;;;;;;1.45;0.70;;;;;;;8.48;100.00;98217.45;3722391;78;43986;-20
2021/05/25 17:33:44;;;;;;;1.77;0.88;;;;;;;8.08;100.00;98168.20;3709373;77;43381;-20
2021/05/25 17:38:50;;;;;;;2.62;1.07;;;;;;;7.99;100.00;98181.54;3820636;76;42810;-20
2021/05/25 17:43:56;;;;;;;1.35;0.90;;;;;;;8.09;100.00;98188.67;3817168;76;44187;-21
2021/05/25 17:49:01;;;;;;;0.93;0.75;;;;;;;8.20;100.00;98187.11;3821168;76;43245;-21
2021/05/25 17:54:08;;;;;;;2.98;0.80;;;;;;;8.23;100.00;98201.58;3774925;78;44000;-20
2021/05/25 17:59:17;;;;;;;0.70;0.70;;;;;;;8.44;100.00;98181.64;3771436;77;44193;-21
2021/05/25 18:04:22;;;;;;;1.05;0.70;;;;;;;8.61;100.00;98197.43;3775402;78;44078;-21
2021/05/25 18:09:28;;;;;;;1.47;0.90;;;;;;;8.47;100.00;98187.58;3698274;79;44720;-20
2021/05/25 18:14:34;;;;;;;1.27;1.00;;;;;;;8.49;100.00;98187.44;3771621;77;43393;-20
2021/05/25 18:19:40;;;;;;;2.85;0.82;;;;;;;8.44;100.00;98184.33;3695445;80;44085;-21
2021/05/25 18:24:46;;;;;;;2.70;0.98;;;;;;;8.40;100.00;98195.05;3814573;76;44413;-23
2021/05/25 18:29:54;;;;;;;1.55;0.90;;;;;;;8.40;100.00;98201.25;3772868;77;43462;-21
2021/05/25 18:35:04;;;;;;;1.70;1.05;;;;;;;8.33;100.00;98212.26;3762928;78;43404;-21
2021/05/25 18:40:23;;;;;;;1.15;0.90;;;;;;;8.27;100.00;98212.37;3747517;78;44471;-21
2021/05/25 18:45:29;;;;;;;1.13;0.80;;;;;;;8.28;100.00;98220.77;3797849;76;43433;-20
2021/05/25 18:50:35;;;;;;;3.12;1.12;;;;;;;8.38;100.00;98209.11;3796579;77;43929;-21
2021/05/25 18:55:42;;;;;;;1.55;1.10;;;;;;;8.45;100.00;98218.23;3794851;76;43986;-21
2021/05/25 19:00:50;;;;;;;1.20;1.00;;;;;;;8.61;100.00;98230.52;3800259;77;42978;-22
2021/05/25 19:05:56;;;;;;;1.45;0.90;;;;;;;8.57;100.00;98239.03;3795490;76;44694;-23
2021/05/25 19:11:03;;;;;;;2.08;1.10;;;;;;;8.37;100.00;98253.05;3806950;76;43490;-23
2021/05/25 19:16:13;;;;;;;1.72;1.10;;;;;;;8.35;100.00;98253.19;3813355;76;44439;-24
2021/05/25 19:21:24;;;;;;;1.12;0.70;;;;;;;8.33;100.00;98249.33;3815832;76;43711;-24
2021/05/25 19:26:29;;;;;;;1.07;0.70;;;;;;;8.36;100.00;98246.83;3810889;76;43516;-21
2021/05/25 19:31:38;;;;;;;2.30;0.70;;;;;;;8.41;100.00;98257.14;3808231;76;43676;-21
2021/05/25 19:36:43;;;;;;;1.20;0.70;;;;;;;8.45;100.00;98265.22;3825855;76;43463;-20
2021/05/25 19:41:49;;;;;;;0.82;0.70;;;;;;;8.36;100.00;98270.98;3832988;76;44230;-19
2021/05/25 19:46:56;;;;;;;0.85;0.85;;;;;;;8.33;100.00;98276.68;3828574;76;43055;-21
2021/05/25 19:52:05;;;;;;;0.65;0.65;;;;;;;8.33;100.00;98263.26;3835614;77;43435;-19
2021/05/25 19:57:10;;;;;;;0.90;0.70;;;;;;;8.46;100.00;98267.77;3826801;76;43371;-21
2021/05/25 20:02:18;;;;;;;0.88;0.70;;;;;;;8.48;100.00;98268.98;3820216;77;42967;-21
2021/05/25 20:07:24;;;;;;;1.98;0.62;;;;;;;8.51;100.00;98260.63;3827201;76;44026;-20
2021/05/25 20:12:30;;;;;;;0.95;0.70;;;;;;;8.51;100.00;98262.45;3811704;77;44037;-19
2021/05/25 20:17:37;;;;;;;1.30;0.63;;;;;;;8.45;100.00;98263.39;3699335;78;43443;-19
2021/05/25 20:22:44;;;;;;;1.50;0.50;;;;;;;8.45;100.00;98259.36;3772035;78;43694;-20
2021/05/25 20:27:50;;;;;;;1.12;0.65;;;;;;;8.48;100.00;98250.19;3768703;77;43369;-20
2021/05/25 20:32:57;;;;;;;0.93;0.70;;;;;;;8.40;100.00;98256.27;3771932;78;43463;-19
2021/05/25 20:38:05;;;;;;;0.75;0.60;;;;;;;8.36;100.00;98254.05;3751616;78;43439;-19
2021/05/25 20:43:15;;;;;;;1.05;0.70;;;;;;;8.36;100.00;98240.63;3698883;79;43280;-19
2021/05/25 20:48:22;;;;;;;0.75;0.57;;;;;;;8.28;100.00;98244.92;3794682;76;44032;-19
2021/05/25 20:53:28;;;;;;;0.82;0.70;;;;;;;8.20;100.00;98250.18;3809294;77;43187;-20
2021/05/25 20:58:34;;;;;;;1.07;0.70;;;;;;;8.17;100.00;98246.48;3804100;76;43196;-20
2021/05/25 21:03:40;;;;;;;0.80;0.80;;;;;;;8.10;100.00;98255.63;3800192;76;44541;-20
2021/05/25 21:08:46;;;;;;;1.40;0.93;;;;;;;8.12;100.00;98248.24;3793207;77;43362;-20
2021/05/25 21:13:53;;;;;;;2.90;1.00;;;;;;;8.12;100.00;98234.00;3797189;76;43959;-20
2021/05/25 21:18:58;;;;;;;1.52;0.90;;;;;;;8.10;100.00;98227.93;3817416;76;43411;-21
2021/05/25 21:24:06;;;;;;;1.40;0.90;;;;;;;8.05;100.00;98224.36;3800006;77;73704;-20
2021/05/25 21:29:13;;;;;;;1.00;0.90;;;;;;;8.01;100.00;98214.44;3798895;76;43081;-20
2021/05/25 21:34:19;;;;;;;1.77;0.90;;;;;;;7.93;100.00;98217.03;3801030;76;43438;-21
2021/05/25 21:39:25;;;;;;;1.75;0.82;;;;;;;7.88;100.00;98217.95;3789768;77;42911;-20
2021/05/25 21:44:31;;;;;;;1.27;0.85;;;;;;;7.85;100.00;98219.59;3795215;76;43994;-21
2021/05/25 21:49:37;;;;;;;1.37;0.80;;;;;;;7.82;100.00;98219.40;3801280;77;44083;-21
2021/05/25 21:54:43;;;;;;;1.00;0.50;;;;;;;7.83;100.00;98214.86;3795870;77;42951;-20
2021/05/25 21:59:49;;;;;;;1.35;0.80;;;;;;;7.91;100.00;98217.67;3802610;77;44016;-20
2021/05/25 22:04:55;;;;;;;2.52;0.80;;;;;;;7.95;100.00;98215.52;3805173;77;43006;-20
2021/05/25 22:10:01;;;;;;;1.67;0.80;;;;;;;8.05;100.00;98214.14;3801025;76;43031;-20
2021/05/25 22:15:09;;;;;;;1.40;0.70;;;;;;;8.12;100.00;98210.67;3794184;76;43420;-20
2021/05/25 22:20:17;;;;;;;2.00;0.70;;;;;;;8.15;100.00;98199.65;3801342;77;43358;-21
2021/05/25 22:25:24;;;;;;;0.80;0.62;;;;;;;8.20;100.00;98207.23;3798212;76;43674;-21
2021/05/25 22:30:30;;;;;;;1.45;0.90;;;;;;;8.14;100.00;98207.86;3809260;77;43593;-20
2021/05/25 22:35:37;;;;;;;1.37;1.00;;;;;;;8.10;100.00;98193.05;3802751;76;44503;-21
2021/05/25 22:40:45;;;;;;;3.47;0.95;;;;;;;8.02;100.00;98190.63;3606346;81;43717;-20
2021/05/25 22:45:51;;;;;;;1.27;0.90;;;;;;;7.99;100.00;98193.61;3654482;79;73238;-20
2021/05/25 22:50:57;;;;;;;1.72;0.85;;;;;;;7.97;100.00;98191.57;3600431;81;44197;-20
2021/05/25 22:56:03;;;;;;;1.37;1.02;;;;;;;8.01;100.00;98197.47;3751992;77;44585;-20
2021/05/25 23:01:09;;;;;;;1.80;0.90;;;;;;;7.94;100.00;98191.86;3758592;79;43700;-20
2021/05/25 23:06:15;;;;;;;3.10;1.02;;;;;;;7.84;100.00;98180.35;3744206;79;43990;-21
2021/05/25 23:11:21;;;;;;;2.25;1.12;;;;;;;7.78;100.00;98179.63;3637730;81;44024;-22
2021/05/25 23:16:27;;;;;;;1.57;0.88;;;;;;;7.70;100.00;98171.81;3748721;79;43713;-21
2021/05/25 23:21:33;;;;;;;2.22;0.95;;;;;;;7.57;100.00;98165.97;3756422;77;43404;-19
2021/05/25 23:26:39;;;;;;;1.30;0.90;;;;;;;7.55;100.00;98162.08;3758237;77;43177;-20
2021/05/25 23:31:48;;;;;;;3.67;1.07;;;;;;;7.51;100.00;98165.21;3599268;82;43282;-20
2021/05/25 23:36:54;;;;;;;1.50;0.80;;;;;;;7.50;100.00;98160.36;3760361;77;44475;-20
2021/05/25 23:42:00;;;;;;;1.00;0.90;;;;;;;7.50;100.00;98161.70;3814739;77;44097;-20
2021/05/25 23:47:07;;;;;;;2.60;1.15;;;;;;;7.54;100.00;98163.58;3813160;76;44448;-21
2021/05/25 23:52:13;;;;;;;3.52;1.40;;;;;;;7.63;100.00;98162.69;3807973;76;43339;-19
2021/05/25 23:57:19;;;;;;;2.98;1.27;;;;;;;7.69;100.00;98162.10;3808652;77;44011;-21
